Terminal Aerodrome Forecast
Issued by NWS Detroit/Pontiac, MI

Home | Current Version | Previous Version | Text Only | Print | Product List | Glossary On
Versions: 1 2 3 4 5 6 7 8 9 10 11 12 13 14 15 16 17 18 19 20 21 22 23 24 25 26
000
FTUS43 KDTX 280200 AAB
TAFDTW
TAF AMD
KDTW 280235Z 2803/2906 36004KT P6SM SCT080 BKN150
      TEMPO 2803/2806 6SM -SHRA BR SCT025 BKN035
     FM280600 35007KT P6SM SCT018 BKN028 OVC035
     FM281400 34013G20KT P6SM BKN028 OVC040
     FM281800 34013G20KT P6SM BKN040
     FM290000 32012KT P6SM SCT040=

USA.gov is the U.S. government's official web portal to all federal, state and local government web resources and services.